Terminal Aerodrome Forecast
Issued by NWS

Home | Current Version | Previous Version | Text Only | Print | Product List | Glossary On
Versions: 1 2 3 4 5 6 7 8 9 10 11 12 13 14 15 16 17 18 19
371
FTPA31 PHFO 220539
TAFHNY
TAF
PHNY 220539Z 2206/2306 06009KT P6SM SCT025
     FM222000 27007KT P6SM VCSH SCT015 BKN025
     FM230400 05010KT P6SM SCT025=

USA.gov is the U.S. government's official web portal to all federal, state and local government web resources and services.